Station: Munchen, ICAO: EDDM, Synop: Synop: 10866,
Koordinaten: 4821'00''N 01147'00''E, Hoehe: 453m, Entfernung: 22.28km
2017/12/15 04:20
EDDM 150420Z 23018KT 9999 FEW023 BKN120 04/00 Q0995 TEMPO 24020G30KT 4000 SHSNRA BKN012CB


Station: Ingolstadt, ICAO: ETSI, Synop: Synop: 10860,
Koordinaten: 4843'00''N 01132'00''E, Hoehe: 367m, Entfernung: 22.78km
2017/12/15 04:20
ETSI 150420Z 25015KT 9999 BKN027 04/01 Q0995 BLU


Station: Erding, ICAO: ETSE, Synop: Synop: 10869,
Koordinaten: 4819'00''N 01157'00''E, Hoehe: 462m, Entfernung: 33.00km
2015/01/30 08:20
ETSE 300820Z 27013G23KT 1600 SHSNGS FEW006 BKN023 01/M01 Q0979 REGS YLO


Station: Neuburg / Donau, ICAO: ETSN, Synop: Synop: 10853,
Koordinaten: 4843'00''N 01113'00''E, Hoehe: 380m, Entfernung: 37.06km
2017/12/15 04:20
ETSN 150420Z 25018G28KT 9999 FEW020 BKN150 04/00 Q0995 BLU


Station: Fuerstenfeldbruck, ICAO: ETSF, Synop: Synop: 10858,
Koordinaten: 4812'00''N 01116'00''E, Hoehe: 519m, Entfernung: 44.39km
2007/10/09 05:44
ETSF 090544Z 19001KT 1500 R27/2300D BR FEW300 04/04 Q1024 BLACKAMB AMB BECMG YLO


Station: Augsburg, ICAO: EDMA, Synop: Synop: 10852,
Koordinaten: 4826'00''N 01056'00''E, Hoehe: 461m, Entfernung: 51.87km
2017/12/15 04:20
EDMA 150420Z AUTO 24015KT 9999 // BKN160/// 03/M00 Q0995


mehr Wetter
WetterInfo - adds.pl 2.6.003 DL3EL © 2004-2017 [154965]